ココス (キーリング) 諸島 の空港の天気 - METARとTAF

ココス島国際空港 ( YPCC / CCK ) - ココス諸島 ココス (キーリング) 諸島
飛行場実況気象(Metar)
観測時間10/21 22:00 CCT (10/21 15:30 UTC)
風向・風速東南東 5m/s
視程10km以上
天気現象
全天の4割程度の雲 雲底高度 580m
気温26℃
湿度84%
気圧1012hPa
METARYPCC 211530Z AUTO 11010KT 9999 // SCT019 26/23 Q1012 RF00.0/000.0
過去の天気等 Google飛行場航空写真 Wunderground天気予報

過去48時間のMETAR

飛行場予報(TAF)
発表時間: 10/21 17:17 CCT (10/21 10:47 UTC)
予報対象時間: 21日18時 CCT ~ 22日18時 CCT
風向・風速東南東 7m/s
視程10km以上
全天の4割程度の雲 雲底高度 610m
22日15時 CCT から
風向・風速東南東 7m/s
視程10km以上
天気現象弱いしゅう雨
全天の8割程度の雲 雲底高度 550m
22日15時 CCT ~ 22日18時 CCT に一時的に
視程3000m
天気現象しゅう雨
全天の8割程度の雲 雲底高度 300m
TAF YPCC 211047Z 2112/2212 12013KT 9999 SCT020
FM220900 12013KT 9999 -SHRA BKN018
TEMPO 2209/2212 3000 SHRA BKN010